sensor_id;sensor_type;location;lat;lon;timestamp;temperature;humidity
18177;DHT22;9213;50.858;3.964;2023-04-25T00:02:09;13.80;48.80
18177;DHT22;9213;50.858;3.964;2023-04-25T00:04:36;13.90;49.10
18177;DHT22;9213;50.858;3.964;2023-04-25T00:07:03;13.80;49.30
18177;DHT22;9213;50.858;3.964;2023-04-25T00:09:31;13.80;49.30
18177;DHT22;9213;50.858;3.964;2023-04-25T00:11:58;13.80;49.30
18177;DHT22;9213;50.858;3.964;2023-04-25T00:14:26;13.80;49.40
18177;DHT22;9213;50.858;3.964;2023-04-25T00:16:54;13.70;49.50
18177;DHT22;9213;50.858;3.964;2023-04-25T00:19:23;13.70;49.50
18177;DHT22;9213;50.858;3.964;2023-04-25T00:21:50;13.70;49.60
18177;DHT22;9213;50.858;3.964;2023-04-25T00:24:17;13.70;49.70
18177;DHT22;9213;50.858;3.964;2023-04-25T00:26:44;13.60;49.70
18177;DHT22;9213;50.858;3.964;2023-04-25T00:29:10;13.70;49.90
18177;DHT22;9213;50.858;3.964;2023-04-25T00:31:37;13.60;49.60
18177;DHT22;9213;50.858;3.964;2023-04-25T00:34:05;13.60;49.50
18177;DHT22;9213;50.858;3.964;2023-04-25T00:36:33;13.60;49.40
18177;DHT22;9213;50.858;3.964;2023-04-25T00:39:00;13.60;49.50
18177;DHT22;9213;50.858;3.964;2023-04-25T00:41:30;13.60;49.50
18177;DHT22;9213;50.858;3.964;2023-04-25T00:43:58;13.50;49.70
18177;DHT22;9213;50.858;3.964;2023-04-25T00:46:25;13.50;50.10
18177;DHT22;9213;50.858;3.964;2023-04-25T00:48:52;13.40;50.10
18177;DHT22;9213;50.858;3.964;2023-04-25T00:51:20;13.40;50.50
18177;DHT22;9213;50.858;3.964;2023-04-25T00:53:49;13.30;50.70
18177;DHT22;9213;50.858;3.964;2023-04-25T00:56:16;13.30;51.00
18177;DHT22;9213;50.858;3.964;2023-04-25T00:58:43;13.20;51.00
18177;DHT22;9213;50.858;3.964;2023-04-25T01:01:11;13.20;51.10
18177;DHT22;9213;50.858;3.964;2023-04-25T01:03:39;13.20;51.30
18177;DHT22;9213;50.858;3.964;2023-04-25T01:06:08;13.10;51.50
18177;DHT22;9213;50.858;3.964;2023-04-25T01:08:36;13.10;51.80
18177;DHT22;9213;50.858;3.964;2023-04-25T01:11:05;13.10;51.80
18177;DHT22;9213;50.858;3.964;2023-04-25T01:13:33;13.00;51.90
18177;DHT22;9213;50.858;3.964;2023-04-25T01:16:01;13.00;52.00
18177;DHT22;9213;50.858;3.964;2023-04-25T01:18:28;13.00;52.10
18177;DHT22;9213;50.858;3.964;2023-04-25T01:20:55;12.90;52.10
18177;DHT22;9213;50.858;3.964;2023-04-25T01:23:26;12.90;52.20
18177;DHT22;9213;50.858;3.964;2023-04-25T01:25:53;12.90;52.20
18177;DHT22;9213;50.858;3.964;2023-04-25T01:28:20;12.90;52.40
18177;DHT22;9213;50.858;3.964;2023-04-25T01:30:47;12.90;52.50
18177;DHT22;9213;50.858;3.964;2023-04-25T01:33:15;12.80;52.50
18177;DHT22;9213;50.858;3.964;2023-04-25T01:35:43;12.80;52.70
18177;DHT22;9213;50.858;3.964;2023-04-25T01:38:11;12.80;52.70
18177;DHT22;9213;50.858;3.964;2023-04-25T01:40:41;12.80;52.70
18177;DHT22;9213;50.858;3.964;2023-04-25T01:43:08;12.80;52.90
18177;DHT22;9213;50.858;3.964;2023-04-25T01:45:36;12.80;52.90
18177;DHT22;9213;50.858;3.964;2023-04-25T01:48:05;12.80;53.00
18177;DHT22;9213;50.858;3.964;2023-04-25T01:50:32;12.80;53.20
18177;DHT22;9213;50.858;3.964;2023-04-25T01:52:59;12.70;53.20
18177;DHT22;9213;50.858;3.964;2023-04-25T01:55:27;12.70;53.30
18177;DHT22;9213;50.858;3.964;2023-04-25T01:57:55;12.70;53.40
18177;DHT22;9213;50.858;3.964;2023-04-25T02:00:22;12.70;53.50
18177;DHT22;9213;50.858;3.964;2023-04-25T02:02:49;12.70;53.50
18177;DHT22;9213;50.858;3.964;2023-04-25T02:05:19;12.60;53.40
18177;DHT22;9213;50.858;3.964;2023-04-25T02:07:46;12.60;53.60
18177;DHT22;9213;50.858;3.964;2023-04-25T02:10:13;12.60;53.50
18177;DHT22;9213;50.858;3.964;2023-04-25T02:12:40;12.60;53.60
18177;DHT22;9213;50.858;3.964;2023-04-25T02:15:09;12.60;53.60
18177;DHT22;9213;50.858;3.964;2023-04-25T02:17:37;12.60;53.70
18177;DHT22;9213;50.858;3.964;2023-04-25T02:20:05;12.60;53.50
18177;DHT22;9213;50.858;3.964;2023-04-25T02:22:33;12.60;53.60
18177;DHT22;9213;50.858;3.964;2023-04-25T02:25:01;12.50;53.70
18177;DHT22;9213;50.858;3.964;2023-04-25T02:27:30;12.50;53.80
18177;DHT22;9213;50.858;3.964;2023-04-25T02:29:56;12.50;53.90
18177;DHT22;9213;50.858;3.964;2023-04-25T02:32:25;12.50;53.90
18177;DHT22;9213;50.858;3.964;2023-04-25T02:34:52;12.50;53.90
18177;DHT22;9213;50.858;3.964;2023-04-25T02:37:19;12.50;53.90
18177;DHT22;9213;50.858;3.964;2023-04-25T02:39:46;12.50;54.00
18177;DHT22;9213;50.858;3.964;2023-04-25T02:42:13;12.50;54.00
18177;DHT22;9213;50.858;3.964;2023-04-25T02:44:40;12.40;54.00
18177;DHT22;9213;50.858;3.964;2023-04-25T02:47:07;12.40;54.00
18177;DHT22;9213;50.858;3.964;2023-04-25T02:49:35;12.30;54.00
18177;DHT22;9213;50.858;3.964;2023-04-25T02:52:02;12.30;53.90
18177;DHT22;9213;50.858;3.964;2023-04-25T02:54:29;12.20;53.80
18177;DHT22;9213;50.858;3.964;2023-04-25T02:56:56;12.20;54.50
18177;DHT22;9213;50.858;3.964;2023-04-25T02:59:23;12.20;53.50
18177;DHT22;9213;50.858;3.964;2023-04-25T03:01:50;12.10;53.30
18177;DHT22;9213;50.858;3.964;2023-04-25T03:04:17;12.00;53.20
18177;DHT22;9213;50.858;3.964;2023-04-25T03:06:46;12.00;53.10
18177;DHT22;9213;50.858;3.964;2023-04-25T03:09:12;12.00;52.90
18177;DHT22;9213;50.858;3.964;2023-04-25T03:11:39;11.90;52.90
18177;DHT22;9213;50.858;3.964;2023-04-25T03:14:06;11.90;52.80
18177;DHT22;9213;50.858;3.964;2023-04-25T03:16:33;11.90;52.60
18177;DHT22;9213;50.858;3.964;2023-04-25T03:19:00;11.80;52.50
18177;DHT22;9213;50.858;3.964;2023-04-25T03:21:27;11.80;52.50
18177;DHT22;9213;50.858;3.964;2023-04-25T03:23:55;11.80;52.50
18177;DHT22;9213;50.858;3.964;2023-04-25T03:26:22;11.80;52.50
18177;DHT22;9213;50.858;3.964;2023-04-25T03:28:49;11.70;52.50
18177;DHT22;9213;50.858;3.964;2023-04-25T03:31:16;11.70;52.50
18177;DHT22;9213;50.858;3.964;2023-04-25T03:33:43;11.70;52.50
18177;DHT22;9213;50.858;3.964;2023-04-25T03:36:10;11.70;52.60
18177;DHT22;9213;50.858;3.964;2023-04-25T03:38:37;11.70;52.70
18177;DHT22;9213;50.858;3.964;2023-04-25T03:41:05;11.60;52.60
18177;DHT22;9213;50.858;3.964;2023-04-25T03:43:32;11.60;52.60
18177;DHT22;9213;50.858;3.964;2023-04-25T03:45:59;11.60;52.70
18177;DHT22;9213;50.858;3.964;2023-04-25T03:48:26;11.70;52.70
18177;DHT22;9213;50.858;3.964;2023-04-25T03:50:53;11.60;52.70
18177;DHT22;9213;50.858;3.964;2023-04-25T03:53:20;11.60;52.80
18177;DHT22;9213;50.858;3.964;2023-04-25T03:55:47;11.60;52.90
18177;DHT22;9213;50.858;3.964;2023-04-25T03:58:16;11.60;52.90
18177;DHT22;9213;50.858;3.964;2023-04-25T04:00:43;11.60;52.90
18177;DHT22;9213;50.858;3.964;2023-04-25T04:03:10;11.60;52.90
18177;DHT22;9213;50.858;3.964;2023-04-25T04:05:37;11.60;53.00
18177;DHT22;9213;50.858;3.964;2023-04-25T04:08:06;11.60;53.10
18177;DHT22;9213;50.858;3.964;2023-04-25T04:10:32;11.60;53.20
18177;DHT22;9213;50.858;3.964;2023-04-25T04:13:00;11.60;53.30
18177;DHT22;9213;50.858;3.964;2023-04-25T04:15:28;11.60;53.30
18177;DHT22;9213;50.858;3.964;2023-04-25T04:17:58;11.60;53.40
18177;DHT22;9213;50.858;3.964;2023-04-25T04:20:28;11.60;53.50
18177;DHT22;9213;50.858;3.964;2023-04-25T04:22:55;11.50;53.50
18177;DHT22;9213;50.858;3.964;2023-04-25T04:25:22;11.50;53.40
18177;DHT22;9213;50.858;3.964;2023-04-25T04:27:50;11.60;53.50
18177;DHT22;9213;50.858;3.964;2023-04-25T04:30:20;11.50;53.50
18177;DHT22;9213;50.858;3.964;2023-04-25T04:32:50;11.50;53.40
18177;DHT22;9213;50.858;3.964;2023-04-25T04:35:17;11.50;53.40
18177;DHT22;9213;50.858;3.964;2023-04-25T04:37:44;11.50;53.50
18177;DHT22;9213;50.858;3.964;2023-04-25T04:40:12;11.50;53.60
18177;DHT22;9213;50.858;3.964;2023-04-25T04:42:41;11.50;53.60
18177;DHT22;9213;50.858;3.964;2023-04-25T04:45:08;11.50;53.60
18177;DHT22;9213;50.858;3.964;2023-04-25T04:47:36;11.50;53.70
18177;DHT22;9213;50.858;3.964;2023-04-25T04:50:07;11.50;53.80
18177;DHT22;9213;50.858;3.964;2023-04-25T04:52:35;11.50;53.80
18177;DHT22;9213;50.858;3.964;2023-04-25T04:55:02;11.50;54.50
18177;DHT22;9213;50.858;3.964;2023-04-25T04:57:29;11.50;53.90
18177;DHT22;9213;50.858;3.964;2023-04-25T04:59:56;11.50;53.90
18177;DHT22;9213;50.858;3.964;2023-04-25T05:02:23;11.50;53.90
18177;DHT22;9213;50.858;3.964;2023-04-25T05:04:50;11.50;54.00
18177;DHT22;9213;50.858;3.964;2023-04-25T05:07:19;11.50;54.10
18177;DHT22;9213;50.858;3.964;2023-04-25T05:09:46;11.50;54.90
18177;DHT22;9213;50.858;3.964;2023-04-25T05:12:13;11.50;54.00
18177;DHT22;9213;50.858;3.964;2023-04-25T05:14:40;11.50;54.10
18177;DHT22;9213;50.858;3.964;2023-04-25T05:17:07;11.50;54.00
18177;DHT22;9213;50.858;3.964;2023-04-25T05:19:34;11.60;54.00
18177;DHT22;9213;50.858;3.964;2023-04-25T05:22:01;11.60;54.00
18177;DHT22;9213;50.858;3.964;2023-04-25T05:24:29;11.60;54.00
18177;DHT22;9213;50.858;3.964;2023-04-25T05:26:57;11.60;54.00
18177;DHT22;9213;50.858;3.964;2023-04-25T05:29:24;11.60;53.90
18177;DHT22;9213;50.858;3.964;2023-04-25T05:31:50;11.50;53.90
18177;DHT22;9213;50.858;3.964;2023-04-25T05:34:18;11.60;54.00
18177;DHT22;9213;50.858;3.964;2023-04-25T05:36:45;11.60;54.00
18177;DHT22;9213;50.858;3.964;2023-04-25T05:39:14;11.70;54.00
18177;DHT22;9213;50.858;3.964;2023-04-25T05:41:42;11.70;53.90
18177;DHT22;9213;50.858;3.964;2023-04-25T05:44:09;11.70;53.70
18177;DHT22;9213;50.858;3.964;2023-04-25T05:46:36;11.80;53.60
18177;DHT22;9213;50.858;3.964;2023-04-25T05:49:03;11.90;53.40
18177;DHT22;9213;50.858;3.964;2023-04-25T05:51:30;11.90;53.30
18177;DHT22;9213;50.858;3.964;2023-04-25T05:53:57;12.00;53.00
18177;DHT22;9213;50.858;3.964;2023-04-25T05:56:24;12.00;52.70
18177;DHT22;9213;50.858;3.964;2023-04-25T05:58:52;12.20;52.60
18177;DHT22;9213;50.858;3.964;2023-04-25T06:01:19;12.20;52.30
18177;DHT22;9213;50.858;3.964;2023-04-25T06:03:46;12.30;52.20
18177;DHT22;9213;50.858;3.964;2023-04-25T06:06:13;12.40;52.20
18177;DHT22;9213;50.858;3.964;2023-04-25T06:08:40;12.40;52.00
18177;DHT22;9213;50.858;3.964;2023-04-25T06:11:07;12.40;52.00
18177;DHT22;9213;50.858;3.964;2023-04-25T06:13:34;12.50;52.00
18177;DHT22;9213;50.858;3.964;2023-04-25T06:16:02;12.50;51.80
18177;DHT22;9213;50.858;3.964;2023-04-25T06:18:30;12.50;51.70
18177;DHT22;9213;50.858;3.964;2023-04-25T06:20:57;12.60;51.70
18177;DHT22;9213;50.858;3.964;2023-04-25T06:23:23;12.60;51.60
18177;DHT22;9213;50.858;3.964;2023-04-25T06:25:50;12.70;51.40
18177;DHT22;9213;50.858;3.964;2023-04-25T06:28:17;12.70;51.10
18177;DHT22;9213;50.858;3.964;2023-04-25T06:30:44;12.70;50.90
18177;DHT22;9213;50.858;3.964;2023-04-25T06:33:12;12.70;50.50
18177;DHT22;9213;50.858;3.964;2023-04-25T06:35:40;12.80;50.40
18177;DHT22;9213;50.858;3.964;2023-04-25T06:38:07;12.70;50.40
18177;DHT22;9213;50.858;3.964;2023-04-25T06:40:34;12.70;50.30
18177;DHT22;9213;50.858;3.964;2023-04-25T06:43:01;12.70;50.20
18177;DHT22;9213;50.858;3.964;2023-04-25T06:45:28;12.70;50.40
18177;DHT22;9213;50.858;3.964;2023-04-25T06:47:55;12.80;50.20
18177;DHT22;9213;50.858;3.964;2023-04-25T06:50:23;12.80;50.00
18177;DHT22;9213;50.858;3.964;2023-04-25T06:52:50;12.80;49.90
18177;DHT22;9213;50.858;3.964;2023-04-25T06:55:17;12.80;49.90
18177;DHT22;9213;50.858;3.964;2023-04-25T06:57:44;12.80;50.00
18177;DHT22;9213;50.858;3.964;2023-04-25T07:00:12;12.90;50.20
18177;DHT22;9213;50.858;3.964;2023-04-25T07:02:39;13.00;50.10
18177;DHT22;9213;50.858;3.964;2023-04-25T07:05:08;13.10;50.40
18177;DHT22;9213;50.858;3.964;2023-04-25T07:07:36;13.30;49.40
18177;DHT22;9213;50.858;3.964;2023-04-25T07:10:04;13.50;49.10
18177;DHT22;9213;50.858;3.964;2023-04-25T07:12:32;13.60;48.80
18177;DHT22;9213;50.858;3.964;2023-04-25T07:14:58;13.70;48.20
18177;DHT22;9213;50.858;3.964;2023-04-25T07:17:31;13.90;47.70
18177;DHT22;9213;50.858;3.964;2023-04-25T07:19:59;14.00;47.60
18177;DHT22;9213;50.858;3.964;2023-04-25T07:22:26;14.10;47.10
18177;DHT22;9213;50.858;3.964;2023-04-25T07:24:54;14.30;46.80
18177;DHT22;9213;50.858;3.964;2023-04-25T07:27:21;14.60;46.60
18177;DHT22;9213;50.858;3.964;2023-04-25T07:29:48;14.80;45.60
18177;DHT22;9213;50.858;3.964;2023-04-25T07:32:15;15.00;44.60
18177;DHT22;9213;50.858;3.964;2023-04-25T07:34:42;15.10;43.90
18177;DHT22;9213;50.858;3.964;2023-04-25T07:37:09;15.20;43.30
18177;DHT22;9213;50.858;3.964;2023-04-25T07:39:36;15.20;43.30
18177;DHT22;9213;50.858;3.964;2023-04-25T07:42:05;15.10;42.80
18177;DHT22;9213;50.858;3.964;2023-04-25T07:44:33;15.10;42.70
18177;DHT22;9213;50.858;3.964;2023-04-25T07:47:04;15.00;42.50
18177;DHT22;9213;50.858;3.964;2023-04-25T07:49:32;14.90;42.30
18177;DHT22;9213;50.858;3.964;2023-04-25T07:52:00;14.80;42.40
18177;DHT22;9213;50.858;3.964;2023-04-25T07:54:27;14.80;42.50
18177;DHT22;9213;50.858;3.964;2023-04-25T07:56:54;14.80;42.30
18177;DHT22;9213;50.858;3.964;2023-04-25T07:59:22;14.80;42.00
18177;DHT22;9213;50.858;3.964;2023-04-25T08:01:49;14.80;41.40
18177;DHT22;9213;50.858;3.964;2023-04-25T08:04:16;14.70;41.60
18177;DHT22;9213;50.858;3.964;2023-04-25T08:06:43;14.70;41.60
18177;DHT22;9213;50.858;3.964;2023-04-25T08:09:11;14.70;41.40
18177;DHT22;9213;50.858;3.964;2023-04-25T08:11:38;14.80;42.80
18177;DHT22;9213;50.858;3.964;2023-04-25T08:14:05;15.40;43.40
18177;DHT22;9213;50.858;3.964;2023-04-25T08:16:33;16.50;42.20
18177;DHT22;9213;50.858;3.964;2023-04-25T08:19:00;17.90;39.50
18177;DHT22;9213;50.858;3.964;2023-04-25T08:21:27;19.20;37.40
18177;DHT22;9213;50.858;3.964;2023-04-25T08:23:54;20.30;34.90
18177;DHT22;9213;50.858;3.964;2023-04-25T08:26:22;21.30;33.00
18177;DHT22;9213;50.858;3.964;2023-04-25T08:28:49;21.90;31.00
18177;DHT22;9213;50.858;3.964;2023-04-25T08:31:16;22.10;29.10
18177;DHT22;9213;50.858;3.964;2023-04-25T08:33:45;21.90;29.20
18177;DHT22;9213;50.858;3.964;2023-04-25T08:36:12;21.70;28.90
18177;DHT22;9213;50.858;3.964;2023-04-25T08:38:38;21.30;28.70
18177;DHT22;9213;50.858;3.964;2023-04-25T08:41:06;20.70;29.40
18177;DHT22;9213;50.858;3.964;2023-04-25T08:43:34;19.90;30.10
18177;DHT22;9213;50.858;3.964;2023-04-25T08:46:01;19.00;31.30
18177;DHT22;9213;50.858;3.964;2023-04-25T08:48:30;18.20;32.60
18177;DHT22;9213;50.858;3.964;2023-04-25T08:51:01;17.40;33.60
18177;DHT22;9213;50.858;3.964;2023-04-25T08:53:31;16.80;35.00
18177;DHT22;9213;50.858;3.964;2023-04-25T08:56:00;16.40;36.10
18177;DHT22;9213;50.858;3.964;2023-04-25T08:58:28;16.20;36.60
18177;DHT22;9213;50.858;3.964;2023-04-25T09:00:55;16.10;37.20
18177;DHT22;9213;50.858;3.964;2023-04-25T09:03:22;16.10;38.10
18177;DHT22;9213;50.858;3.964;2023-04-25T09:05:49;16.60;37.90
18177;DHT22;9213;50.858;3.964;2023-04-25T09:08:19;17.20;36.40
18177;DHT22;9213;50.858;3.964;2023-04-25T09:10:46;18.00;34.90
18177;DHT22;9213;50.858;3.964;2023-04-25T09:13:14;18.60;33.90
18177;DHT22;9213;50.858;3.964;2023-04-25T09:15:48;19.30;32.80
18177;DHT22;9213;50.858;3.964;2023-04-25T09:18:22;19.80;32.10
18177;DHT22;9213;50.858;3.964;2023-04-25T09:20:52;20.20;31.00
18177;DHT22;9213;50.858;3.964;2023-04-25T09:23:22;20.60;30.50
18177;DHT22;9213;50.858;3.964;2023-04-25T09:25:50;21.00;30.40
18177;DHT22;9213;50.858;3.964;2023-04-25T09:28:23;21.30;28.50
18177;DHT22;9213;50.858;3.964;2023-04-25T09:30:55;21.70;27.50
18177;DHT22;9213;50.858;3.964;2023-04-25T09:33:27;21.50;27.30
18177;DHT22;9213;50.858;3.964;2023-04-25T09:36:02;21.10;26.70
18177;DHT22;9213;50.858;3.964;2023-04-25T09:38:32;20.60;27.10
18177;DHT22;9213;50.858;3.964;2023-04-25T09:40:59;20.40;27.50
18177;DHT22;9213;50.858;3.964;2023-04-25T09:43:27;20.30;28.20
18177;DHT22;9213;50.858;3.964;2023-04-25T09:45:55;20.40;27.60
18177;DHT22;9213;50.858;3.964;2023-04-25T09:48:27;20.60;28.20
18177;DHT22;9213;50.858;3.964;2023-04-25T09:51:08;20.80;28.00
18177;DHT22;9213;50.858;3.964;2023-04-25T09:53:37;21.20;27.30
18177;DHT22;9213;50.858;3.964;2023-04-25T09:56:06;21.20;26.20
18177;DHT22;9213;50.858;3.964;2023-04-25T09:58:34;20.90;25.70
18177;DHT22;9213;50.858;3.964;2023-04-25T10:01:03;20.70;26.30
18177;DHT22;9213;50.858;3.964;2023-04-25T10:03:31;20.40;26.20
18177;DHT22;9213;50.858;3.964;2023-04-25T10:06:00;20.20;26.80
18177;DHT22;9213;50.858;3.964;2023-04-25T10:08:31;19.90;27.20
18177;DHT22;9213;50.858;3.964;2023-04-25T10:11:01;19.50;28.10
18177;DHT22;9213;50.858;3.964;2023-04-25T10:13:30;19.20;29.50
18177;DHT22;9213;50.858;3.964;2023-04-25T10:15:58;18.80;30.50
18177;DHT22;9213;50.858;3.964;2023-04-25T10:18:26;18.50;31.80
18177;DHT22;9213;50.858;3.964;2023-04-25T10:20:54;18.20;32.60
18177;DHT22;9213;50.858;3.964;2023-04-25T10:23:22;18.10;33.20
18177;DHT22;9213;50.858;3.964;2023-04-25T10:25:50;17.90;33.60
18177;DHT22;9213;50.858;3.964;2023-04-25T10:28:19;17.70;34.00
18177;DHT22;9213;50.858;3.964;2023-04-25T10:30:57;17.70;34.70
18177;DHT22;9213;50.858;3.964;2023-04-25T10:33:32;17.70;35.20
18177;DHT22;9213;50.858;3.964;2023-04-25T10:36:09;17.70;34.90
18177;DHT22;9213;50.858;3.964;2023-04-25T10:38:36;17.80;34.10
18177;DHT22;9213;50.858;3.964;2023-04-25T10:41:04;17.70;34.80
18177;DHT22;9213;50.858;3.964;2023-04-25T10:43:36;17.90;35.10
18177;DHT22;9213;50.858;3.964;2023-04-25T10:46:13;18.10;34.40
18177;DHT22;9213;50.858;3.964;2023-04-25T10:48:48;18.30;34.10
18177;DHT22;9213;50.858;3.964;2023-04-25T10:51:20;18.30;33.70
18177;DHT22;9213;50.858;3.964;2023-04-25T10:53:56;18.30;33.50
18177;DHT22;9213;50.858;3.964;2023-04-25T10:56:26;18.20;33.50
18177;DHT22;9213;50.858;3.964;2023-04-25T10:59:08;18.10;33.60
18177;DHT22;9213;50.858;3.964;2023-04-25T11:01:40;18.20;33.30
18177;DHT22;9213;50.858;3.964;2023-04-25T11:04:19;18.30;33.20
18177;DHT22;9213;50.858;3.964;2023-04-25T11:06:58;18.40;33.00
18177;DHT22;9213;50.858;3.964;2023-04-25T11:09:27;18.60;32.70
18177;DHT22;9213;50.858;3.964;2023-04-25T11:11:55;18.80;32.70
18177;DHT22;9213;50.858;3.964;2023-04-25T11:14:24;19.00;32.30
18177;DHT22;9213;50.858;3.964;2023-04-25T11:16:53;19.20;31.60
18177;DHT22;9213;50.858;3.964;2023-04-25T11:19:21;19.30;31.30
18177;DHT22;9213;50.858;3.964;2023-04-25T11:21:48;19.30;31.60
18177;DHT22;9213;50.858;3.964;2023-04-25T11:24:16;19.40;30.70
18177;DHT22;9213;50.858;3.964;2023-04-25T11:26:43;19.50;31.40
18177;DHT22;9213;50.858;3.964;2023-04-25T11:29:10;19.60;31.40
18177;DHT22;9213;50.858;3.964;2023-04-25T11:31:39;19.60;30.90
18177;DHT22;9213;50.858;3.964;2023-04-25T11:34:09;19.60;31.00
18177;DHT22;9213;50.858;3.964;2023-04-25T11:36:38;19.50;30.10
18177;DHT22;9213;50.858;3.964;2023-04-25T11:39:05;19.50;30.30
18177;DHT22;9213;50.858;3.964;2023-04-25T11:41:32;19.50;29.40
18177;DHT22;9213;50.858;3.964;2023-04-25T11:43:59;19.50;29.50
18177;DHT22;9213;50.858;3.964;2023-04-25T11:46:26;19.50;29.70
18177;DHT22;9213;50.858;3.964;2023-04-25T11:48:56;19.40;29.70
18177;DHT22;9213;50.858;3.964;2023-04-25T11:51:23;19.20;29.70
18177;DHT22;9213;50.858;3.964;2023-04-25T11:53:50;19.20;30.20
18177;DHT22;9213;50.858;3.964;2023-04-25T11:56:17;19.20;29.80
18177;DHT22;9213;50.858;3.964;2023-04-25T11:59:05;19.20;29.70
18177;DHT22;9213;50.858;3.964;2023-04-25T12:01:34;19.40;30.00
18177;DHT22;9213;50.858;3.964;2023-04-25T12:04:14;19.40;29.30
18177;DHT22;9213;50.858;3.964;2023-04-25T12:06:42;19.70;28.80
18177;DHT22;9213;50.858;3.964;2023-04-25T12:09:12;19.70;28.90
18177;DHT22;9213;50.858;3.964;2023-04-25T12:11:41;19.80;29.40
18177;DHT22;9213;50.858;3.964;2023-04-25T12:14:09;19.90;29.70
18177;DHT22;9213;50.858;3.964;2023-04-25T12:16:43;19.90;28.60
18177;DHT22;9213;50.858;3.964;2023-04-25T12:19:15;19.80;28.40
18177;DHT22;9213;50.858;3.964;2023-04-25T12:21:42;19.80;28.30
18177;DHT22;9213;50.858;3.964;2023-04-25T12:24:10;19.80;28.70
18177;DHT22;9213;50.858;3.964;2023-04-25T12:26:48;19.80;28.20
18177;DHT22;9213;50.858;3.964;2023-04-25T12:29:17;20.00;27.50
18177;DHT22;9213;50.858;3.964;2023-04-25T12:31:44;19.90;27.30
18177;DHT22;9213;50.858;3.964;2023-04-25T12:34:11;19.90;27.00
18177;DHT22;9213;50.858;3.964;2023-04-25T12:36:40;19.90;27.50
18177;DHT22;9213;50.858;3.964;2023-04-25T12:39:07;19.80;27.30
18177;DHT22;9213;50.858;3.964;2023-04-25T12:41:34;19.80;27.60
18177;DHT22;9213;50.858;3.964;2023-04-25T12:44:01;19.80;26.90
18177;DHT22;9213;50.858;3.964;2023-04-25T12:46:28;19.70;28.20
18177;DHT22;9213;50.858;3.964;2023-04-25T12:48:55;19.70;28.00
18177;DHT22;9213;50.858;3.964;2023-04-25T12:51:22;19.80;28.30
18177;DHT22;9213;50.858;3.964;2023-04-25T12:53:52;19.90;28.00
18177;DHT22;9213;50.858;3.964;2023-04-25T12:56:19;19.90;26.90
18177;DHT22;9213;50.858;3.964;2023-04-25T12:58:46;19.80;27.20
18177;DHT22;9213;50.858;3.964;2023-04-25T13:01:13;19.70;27.20
18177;DHT22;9213;50.858;3.964;2023-04-25T13:03:40;19.70;27.20
18177;DHT22;9213;50.858;3.964;2023-04-25T13:06:07;19.70;27.70
18177;DHT22;9213;50.858;3.964;2023-04-25T13:08:34;19.90;27.50
18177;DHT22;9213;50.858;3.964;2023-04-25T13:11:04;20.00;26.60
18177;DHT22;9213;50.858;3.964;2023-04-25T13:13:31;20.10;26.70
18177;DHT22;9213;50.858;3.964;2023-04-25T13:16:00;20.20;26.10
18177;DHT22;9213;50.858;3.964;2023-04-25T13:18:27;20.30;25.90
18177;DHT22;9213;50.858;3.964;2023-04-25T13:20:54;20.40;26.00
18177;DHT22;9213;50.858;3.964;2023-04-25T13:23:21;20.60;26.20
18177;DHT22;9213;50.858;3.964;2023-04-25T13:25:49;20.70;26.50
18177;DHT22;9213;50.858;3.964;2023-04-25T13:28:17;20.70;26.10
18177;DHT22;9213;50.858;3.964;2023-04-25T13:30:44;20.70;25.60
18177;DHT22;9213;50.858;3.964;2023-04-25T13:33:13;20.60;26.20
18177;DHT22;9213;50.858;3.964;2023-04-25T13:35:40;20.40;25.50
18177;DHT22;9213;50.858;3.964;2023-04-25T13:38:07;20.20;25.80
18177;DHT22;9213;50.858;3.964;2023-04-25T13:40:34;20.00;25.70
18177;DHT22;9213;50.858;3.964;2023-04-25T13:43:01;19.70;26.60
18177;DHT22;9213;50.858;3.964;2023-04-25T13:45:30;19.50;26.80
18177;DHT22;9213;50.858;3.964;2023-04-25T13:47:56;19.40;27.30
18177;DHT22;9213;50.858;3.964;2023-04-25T13:50:23;19.20;27.20
18177;DHT22;9213;50.858;3.964;2023-04-25T13:52:51;19.10;27.50
18177;DHT22;9213;50.858;3.964;2023-04-25T13:55:18;19.00;27.10
18177;DHT22;9213;50.858;3.964;2023-04-25T13:57:45;19.00;27.50
18177;DHT22;9213;50.858;3.964;2023-04-25T14:00:13;19.00;27.50
18177;DHT22;9213;50.858;3.964;2023-04-25T14:02:41;18.90;27.10
18177;DHT22;9213;50.858;3.964;2023-04-25T14:05:08;19.00;28.20
18177;DHT22;9213;50.858;3.964;2023-04-25T14:07:36;19.10;27.80
18177;DHT22;9213;50.858;3.964;2023-04-25T14:10:03;19.20;28.10
18177;DHT22;9213;50.858;3.964;2023-04-25T14:12:31;19.30;28.10
18177;DHT22;9213;50.858;3.964;2023-04-25T14:14:57;19.30;27.50
18177;DHT22;9213;50.858;3.964;2023-04-25T14:17:24;19.30;27.40
18177;DHT22;9213;50.858;3.964;2023-04-25T14:19:53;19.30;26.80
18177;DHT22;9213;50.858;3.964;2023-04-25T14:22:20;19.30;26.90
18177;DHT22;9213;50.858;3.964;2023-04-25T14:24:47;19.20;26.90
18177;DHT22;9213;50.858;3.964;2023-04-25T14:27:14;19.10;27.70
18177;DHT22;9213;50.858;3.964;2023-04-25T14:29:41;19.00;27.90
18177;DHT22;9213;50.858;3.964;2023-04-25T14:32:08;19.00;28.50
18177;DHT22;9213;50.858;3.964;2023-04-25T14:34:35;18.80;28.30
18177;DHT22;9213;50.858;3.964;2023-04-25T14:37:04;18.70;28.80
18177;DHT22;9213;50.858;3.964;2023-04-25T14:39:31;18.60;29.00
18177;DHT22;9213;50.858;3.964;2023-04-25T14:41:58;18.60;29.30
18177;DHT22;9213;50.858;3.964;2023-04-25T14:44:25;18.50;29.70
18177;DHT22;9213;50.858;3.964;2023-04-25T14:46:52;18.60;29.20
18177;DHT22;9213;50.858;3.964;2023-04-25T14:49:19;18.60;29.10
18177;DHT22;9213;50.858;3.964;2023-04-25T14:51:46;18.60;29.00
18177;DHT22;9213;50.858;3.964;2023-04-25T14:54:14;18.70;28.80
18177;DHT22;9213;50.858;3.964;2023-04-25T14:56:41;18.70;28.80
18177;DHT22;9213;50.858;3.964;2023-04-25T14:59:08;18.70;29.40
18177;DHT22;9213;50.858;3.964;2023-04-25T15:01:35;18.70;28.60
18177;DHT22;9213;50.858;3.964;2023-04-25T15:04:02;18.60;28.80
18177;DHT22;9213;50.858;3.964;2023-04-25T15:06:29;18.50;29.30
18177;DHT22;9213;50.858;3.964;2023-04-25T15:08:56;18.50;29.30
18177;DHT22;9213;50.858;3.964;2023-04-25T15:11:24;18.40;29.50
18177;DHT22;9213;50.858;3.964;2023-04-25T15:13:51;18.40;29.90
18177;DHT22;9213;50.858;3.964;2023-04-25T15:16:18;18.30;29.50
18177;DHT22;9213;50.858;3.964;2023-04-25T15:18:45;18.20;29.30
18177;DHT22;9213;50.858;3.964;2023-04-25T15:21:12;18.10;29.50
18177;DHT22;9213;50.858;3.964;2023-04-25T15:23:40;17.90;29.60
18177;DHT22;9213;50.858;3.964;2023-04-25T15:26:07;17.70;29.50
18177;DHT22;9213;50.858;3.964;2023-04-25T15:28:35;17.60;29.70
18177;DHT22;9213;50.858;3.964;2023-04-25T15:31:03;17.50;30.00
18177;DHT22;9213;50.858;3.964;2023-04-25T15:33:29;17.50;30.10
18177;DHT22;9213;50.858;3.964;2023-04-25T15:35:57;17.40;30.00
18177;DHT22;9213;50.858;3.964;2023-04-25T15:38:24;17.40;30.40
18177;DHT22;9213;50.858;3.964;2023-04-25T15:40:52;17.40;30.00
18177;DHT22;9213;50.858;3.964;2023-04-25T15:43:19;17.40;29.70
18177;DHT22;9213;50.858;3.964;2023-04-25T15:45:47;17.40;29.60
18177;DHT22;9213;50.858;3.964;2023-04-25T15:48:14;17.40;29.80
18177;DHT22;9213;50.858;3.964;2023-04-25T15:50:41;17.40;30.30